Aeroporto :
LOGIN :

Iscrizione | Disclaimer

   EN    FR    IT 

 










Sommario :    VFR   VFR Marginale   IFR   IFR Intensivo   IFR Molto Intensivo
Visibilità : 
Base nubi : 
>= 8 km
>= 3000ft
5 / 8 km
1000 / 3000 ft
1500m / 5 km
500 / 1000 ft
800 / 1500m
200 / 500 ft
< 800m
< 200 ft
Simboli :   Temporali  Nebbia  Neve Forte  Precipitazioni Forti  Vento > 20 kt
SIGMETs :   Varie  Temporali  Ghiacco  Turbolenza  Onda orograficha  Ceneri Vulcaniche






- Altitudine del aeroporto : 645 ft
- Codice IATA : DLE


LFGJ - Dole Tavaux

ULTIMO METAR :
  • 261530Z AUTO VRB01KT CAVOK 17/15 Q1018 TEMPO 2000 TSRA FEW025CB BKN040

METARs OBSOLETI :
  • 261500Z AUTO 31006KT 280V340 9999 //////TCU 16/15 Q1018 TEMPO 2000 TSRA BKN014 SCT020CB
  • 261430Z AUTO 26009KT 8000 3300 -RA FEW034/// BKN066/// BKN076/// //////TCU 17/14 Q1018 TEMPO 2000 TSRA BKN014 SCT020CB
  • 261400Z AUTO 27008KT 9999 -RA ///TCU 17/14 Q1018 TEMPO 2000 TSRA BKN014 SCT020CB
  • 261330Z AUTO 29007KT 9999 ///TCU 18/14 Q1018 TEMPO 2000 TSRA BKN014 SCT020CB
  • 261300Z AUTO 30005KT 9000 NSC 19/14 Q1018 TEMPO 2000 TSRA BKN014 SCT020CB
  • 261230Z AUTO 23003KT 200V260 9999 FEW027 BKN062 OVC074 19/14 Q1018 TEMPO 2000 TSRA BKN014 SCT020CB
  • 261200Z AUTO 18004KT 160V220 8000 //////TCU 19/13 Q1018 TEMPO 2000 TSRA BKN014 SCT020CB
  • 261130Z AUTO 20004KT 7000 NSC 18/13 Q1018 TEMPO 2000 TSRA BKN014 SCT020CB
  • 261100Z AUTO 21005KT 7000 NSC 18/13 Q1018 TEMPO 2000 TSRA BKN014 SCT020CB BECMG 30010KT
  • 261030Z AUTO 24005KT CAVOK 18/13 Q1018 TEMPO 2000 TSRA BKN014 SCT020CB BECMG 30010KT

TAF TAF LFGJ
Valido dal 26 a 15 ore il 27 a 00 ore UTC


261400Z 2615/2624 28010KT CAVOK
TEMPO 2615/2619 SHRA FEW025CB BKN040
PROB30
TEMPO 2615/2617 2000 TSRA BKN014 SCT020CB



MetMap, La meteo Aeronautica in un colpo d'occhio ! - Copyright ORBIFLY Dicembre 2007 - Disclaimer

ORBIFLY MET'MAP TEAM :

Programmazione e sviluppo : Alexandra Zaïnal
Concezione : Baudouin d'Aumeries
Supporto tecnico e logistico : Manuel Goepfert
Aiuto : Marc-Olivier Méhu
Aiuto per la traduzione : Arnaldo La Scala




FONTI E CREDITI :

   NOAA